Time;durP1;ratioP1;P1;durP2;ratioP2;P2;SDS_P1;SDS_P2;PMS_P1;PMS_P2;Temp;Humidity;BMP_temperature;BMP_pressure;BME280_temperature;BME280_humidity;BME280_pressure;Samples;Min_cycle;Max_cycle;Signal;HPM_P1;HPM_P2
2022/06/20 00:00:41;;;;;;;12.37;9.17;;;31.00;44.70;;;;;;5021784;28;20551;-47
2022/06/20 00:03:12;;;;;;;12.17;9.87;;;30.90;44.80;;;;;;5023843;28;20424;-47
2022/06/20 00:05:37;;;;;;;10.93;9.83;;;30.90;44.80;;;;;;5026543;28;20481;-47
2022/06/20 00:08:04;;;;;;;12.90;9.97;;;30.90;44.80;;;;;;5029792;28;20483;-44
2022/06/20 00:10:31;;;;;;;10.90;9.97;;;30.90;44.80;;;;;;5024113;28;20886;-44
2022/06/20 00:12:57;;;;;;;11.83;10.10;;;30.90;44.70;;;;;;5024912;28;20772;-46
2022/06/20 00:15:35;;;;;;;17.20;10.33;;;30.90;44.60;;;;;;5028992;28;20943;-47
2022/06/20 00:18:05;;;;;;;12.90;9.93;;;30.90;44.50;;;;;;5028328;28;20447;-47
2022/06/20 00:20:30;;;;;;;11.77;10.10;;;31.00;44.40;;;;;;5022713;28;20459;-44
2022/06/20 00:22:56;;;;;;;11.30;9.70;;;31.00;44.50;;;;;;5018599;28;20939;-47
2022/06/20 00:25:23;;;;;;;13.30;9.67;;;30.90;44.60;;;;;;5027926;28;20645;-46
2022/06/20 00:27:50;;;;;;;12.57;10.00;;;30.90;44.80;;;;;;5026603;28;20931;-46
2022/06/20 00:30:18;;;;;;;16.80;10.00;;;30.90;44.70;;;;;;5029742;28;20442;-48
2022/06/20 00:32:43;;;;;;;12.60;9.70;;;30.90;44.90;;;;;;5022671;28;20931;-44
2022/06/20 00:35:09;;;;;;;13.30;9.80;;;30.90;45.20;;;;;;5020309;28;20453;-46
2022/06/20 00:37:35;;;;;;;10.43;8.97;;;30.80;45.20;;;;;;5027978;28;20202;-46
2022/06/20 00:40:04;;;;;;;13.53;10.60;;;30.70;45.20;;;;;;5025881;28;20223;-45
2022/06/20 00:42:29;;;;;;;10.27;9.37;;;30.70;45.40;;;;;;5022815;28;20445;-44
2022/06/20 00:44:59;;;;;;;11.47;10.27;;;30.60;45.80;;;;;;5023988;28;20470;-47
2022/06/20 00:47:30;;;;;;;11.90;10.03;;;30.40;46.10;;;;;;5026099;28;20630;-45
2022/06/20 00:50:23;;;;;;;10.90;10.03;;;30.40;46.20;;;;;;5025941;28;20471;-44
2022/06/20 00:52:50;;;;;;;12.57;8.80;;;30.30;46.30;;;;;;5026491;28;20478;-44
2022/06/20 00:55:45;;;;;;;12.60;9.80;;;30.30;46.10;;;;;;5029329;28;20801;-44
2022/06/20 00:58:37;;;;;;;10.77;9.10;;;30.20;46.50;;;;;;5009027;28;20483;-45
2022/06/20 01:01:03;;;;;;;11.80;10.10;;;30.20;46.20;;;;;;5027134;28;20464;-43
2022/06/20 01:03:36;;;;;;;10.67;9.67;;;30.10;45.80;;;;;;5021608;28;20440;-47
2022/06/20 01:06:06;;;;;;;12.37;9.00;;;30.10;45.40;;;;;;5025725;28;20432;-45
2022/06/20 01:08:41;;;;;;;9.50;8.63;;;30.10;45.20;;;;;;5026583;28;20448;-47
2022/06/20 01:11:27;;;;;;;11.83;8.77;;;30.30;45.00;;;;;;5018119;28;20961;-44
2022/06/20 01:13:53;;;;;;;12.50;9.83;;;30.30;44.80;;;;;;5024556;28;21498;-45
2022/06/20 01:16:33;;;;;;;10.00;9.00;;;30.40;45.10;;;;;;5019948;28;20519;-43
2022/06/20 01:19:01;;;;;;;12.40;9.00;;;30.50;45.20;;;;;;5024124;28;20436;-43
2022/06/20 01:21:35;;;;;;;10.00;9.00;;;30.50;45.30;;;;;;5028312;28;20444;-43
2022/06/20 01:24:35;;;;;;;9.70;8.70;;;30.60;45.30;;;;;;5027891;28;20493;-44
2022/06/20 01:27:25;;;;;;;19.50;10.93;;;30.60;45.50;;;;;;5026150;28;20462;-44
2022/06/20 01:29:51;;;;;;;15.37;11.10;;;30.60;47.20;;;;;;5024891;28;20451;-44
2022/06/20 01:32:17;;;;;;;15.97;12.10;;;30.40;49.90;;;;;;5025488;28;21107;-45
2022/06/20 01:34:43;;;;;;;21.27;11.80;;;30.30;50.70;;;;;;5030381;28;20955;-45
2022/06/20 01:37:25;;;;;;;12.20;9.90;;;30.10;50.60;;;;;;5028515;28;20494;-46
2022/06/20 01:39:58;;;;;;;15.47;9.90;;;30.10;51.20;;;;;;5029314;28;20194;-45
2022/06/20 01:42:26;;;;;;;12.20;9.90;;;29.90;51.20;;;;;;5021334;28;21196;-46
2022/06/20 01:48:00;;;;;;;13.40;9.27;;;29.60;52.60;;;;;;4995371;28;20451;-46
2022/06/20 01:50:26;;;;;;;17.53;11.13;;;29.70;52.00;;;;;;5026763;28;20506;-47
2022/06/20 01:52:52;;;;;;;11.60;9.77;;;29.70;51.50;;;;;;5025004;28;20464;-46
2022/06/20 01:55:22;;;;;;;12.43;8.93;;;29.90;50.80;;;;;;5025967;28;20633;-45
2022/06/20 01:57:54;;;;;;;14.90;10.03;;;29.90;51.20;;;;;;5025354;28;20200;-46
2022/06/20 02:00:23;;;;;;;11.30;10.20;;;30.00;50.90;;;;;;5025450;28;20523;-45
2022/06/20 02:02:56;;;;;;;11.30;10.10;;;30.10;51.00;;;;;;5025570;28;20804;-45
2022/06/20 02:05:27;;;;;;;14.60;10.87;;;30.10;51.10;;;;;;5023947;28;20443;-49
2022/06/20 02:07:56;;;;;;;15.63;10.30;;;30.10;51.10;;;;;;5021352;28;20444;-45
2022/06/20 02:10:26;;;;;;;13.10;10.50;;;30.00;51.50;;;;;;5022382;28;20455;-47
2022/06/20 02:12:56;;;;;;;13.30;10.60;;;30.00;51.60;;;;;;5029280;28;20446;-46
2022/06/20 02:15:21;;;;;;;12.33;11.03;;;29.90;51.30;;;;;;5028216;28;20444;-46
2022/06/20 02:17:50;;;;;;;12.20;11.10;;;29.80;51.00;;;;;;5026705;28;20848;-46
2022/06/20 02:20:22;;;;;;;12.33;10.00;;;29.60;51.50;;;;;;5023772;28;22352;-46
2022/06/20 02:22:50;;;;;;;13.33;11.80;;;29.50;51.80;;;;;;5028838;28;20444;-46
2022/06/20 02:25:21;;;;;;;13.33;12.00;;;29.50;51.80;;;;;;5025194;28;20976;-45
2022/06/20 02:27:51;;;;;;;14.33;10.10;;;29.50;52.10;;;;;;5024854;28;20989;-46
2022/06/20 02:30:16;;;;;;;11.33;10.23;;;29.50;52.30;;;;;;5026948;28;20433;-44
2022/06/20 02:32:46;;;;;;;10.97;10.03;;;29.40;51.90;;;;;;5027403;28;20872;-46
2022/06/20 02:35:15;;;;;;;11.67;10.00;;;29.30;52.00;;;;;;5028749;28;20272;-49
2022/06/20 02:37:42;;;;;;;13.47;9.57;;;29.20;52.10;;;;;;5021908;28;20462;-45
2022/06/20 02:40:11;;;;;;;19.20;11.57;;;29.30;52.30;;;;;;5024466;28;20542;-46
2022/06/20 02:42:46;;;;;;;11.00;9.90;;;29.30;52.60;;;;;;5025503;28;20440;-44
2022/06/20 02:45:14;;;;;;;13.70;12.20;;;29.30;52.60;;;;;;5025979;28;20452;-46
2022/06/20 02:47:42;;;;;;;14.90;11.10;;;29.30;52.90;;;;;;5018730;28;20448;-49
2022/06/20 02:50:10;;;;;;;18.93;10.50;;;29.30;53.70;;;;;;5027044;28;20448;-45
2022/06/20 02:52:51;;;;;;;19.53;13.23;;;29.00;54.80;;;;;;5027981;28;20444;-47
2022/06/20 02:55:18;;;;;;;14.60;11.53;;;28.90;55.50;;;;;;5024612;28;20818;-48
2022/06/20 02:57:49;;;;;;;14.00;12.53;;;28.80;55.70;;;;;;5023601;28;20444;-49
2022/06/20 03:00:25;;;;;;;14.90;13.20;;;28.40;56.90;;;;;;5025610;28;20436;-44
2022/06/20 03:02:56;;;;;;;23.07;13.40;;;28.20;57.70;;;;;;5016711;28;20447;-45
2022/06/20 03:05:23;;;;;;;22.20;11.53;;;28.20;58.40;;;;;;5022278;28;20973;-44
2022/06/20 03:07:51;;;;;;;23.70;13.60;;;28.20;58.20;;;;;;5023991;28;20467;-47
2022/06/20 03:10:35;;;;;;;20.07;13.40;;;28.30;57.90;;;;;;5025118;28;20208;-44
2022/06/20 03:13:02;;;;;;;15.27;12.40;;;28.20;58.20;;;;;;5024150;28;20451;-44
2022/06/20 03:15:30;;;;;;;13.23;11.00;;;28.20;58.70;;;;;;5029496;28;20440;-44
2022/06/20 03:17:57;;;;;;;13.27;11.90;;;28.10;57.90;;;;;;5020015;28;20458;-44
2022/06/20 03:20:27;;;;;;;17.17;12.27;;;28.00;57.90;;;;;;5021863;28;20474;-45
2022/06/20 03:22:59;;;;;;;11.10;10.00;;;28.00;58.10;;;;;;5016161;28;20448;-48
2022/06/20 03:25:25;;;;;;;14.03;10.50;;;28.10;57.70;;;;;;5027451;28;20850;-45
2022/06/20 03:27:52;;;;;;;11.47;10.20;;;28.20;56.50;;;;;;5025925;28;20542;-45
2022/06/20 03:30:31;;;;;;;13.63;10.97;;;28.40;55.70;;;;;;5025083;28;20197;-44
2022/06/20 03:32:59;;;;;;;13.30;11.93;;;28.60;55.50;;;;;;5026811;28;20951;-44
2022/06/20 03:35:30;;;;;;;11.30;9.90;;;28.70;55.90;;;;;;5022382;28;21276;-43
2022/06/20 03:38:00;;;;;;;11.30;10.10;;;28.80;56.40;;;;;;5021474;28;20459;-47
2022/06/20 03:40:27;;;;;;;15.00;11.20;;;28.90;55.70;;;;;;5018782;28;20441;-45
2022/06/20 03:42:55;;;;;;;15.13;11.20;;;29.00;54.90;;;;;;5029377;28;20990;-46
2022/06/20 03:45:22;;;;;;;14.30;11.00;;;29.10;55.50;;;;;;5026616;28;20527;-45
2022/06/20 03:47:57;;;;;;;12.87;11.77;;;29.20;54.70;;;;;;5029196;28;20444;-44
2022/06/20 03:50:31;;;;;;;13.10;10.40;;;29.00;56.10;;;;;;5010284;28;20549;-44
2022/06/20 03:53:02;;;;;;;20.77;11.67;;;29.00;56.30;;;;;;5016010;28;20938;-45
2022/06/20 03:55:47;;;;;;;13.40;10.83;;;28.90;57.10;;;;;;5032126;28;20475;-44
2022/06/20 03:58:56;;;;;;;13.93;10.13;;;28.90;58.20;;;;;;5027230;28;20538;-44
2022/06/20 04:01:33;;;;;;;16.83;12.40;;;28.80;57.50;;;;;;5020529;28;20511;-46
2022/06/20 04:04:10;;;;;;;10.57;9.50;;;28.80;57.60;;;;;;5023795;28;20797;-47
2022/06/20 04:06:45;;;;;;;14.40;10.77;;;28.70;57.30;;;;;;5024206;28;20826;-46
2022/06/20 04:12:10;;;;;;;14.50;12.00;;;28.90;56.30;;;;;;5024618;28;20473;-44
2022/06/20 04:14:59;;;;;;;16.43;12.70;;;28.90;56.70;;;;;;5027530;28;20440;-44
2022/06/20 04:20:43;;;;;;;12.70;11.20;;;28.90;57.20;;;;;;5024885;28;21346;-44
2022/06/20 04:23:14;;;;;;;15.40;12.40;;;28.90;57.40;;;;;;5022569;28;20975;-44
2022/06/20 04:25:55;;;;;;;11.77;10.10;;;29.00;57.30;;;;;;5030938;28;20452;-45
2022/06/20 04:28:47;;;;;;;14.70;10.00;;;29.00;56.80;;;;;;5020962;28;20994;-44
2022/06/20 04:31:29;;;;;;;11.87;9.37;;;29.00;55.60;;;;;;5023526;28;20933;-45
2022/06/20 04:34:13;;;;;;;10.50;9.53;;;28.90;55.20;;;;;;5029639;28;20448;-43
2022/06/20 04:36:56;;;;;;;12.03;10.73;;;28.90;55.10;;;;;;5022654;28;20541;-44
2022/06/20 04:39:39;;;;;;;11.80;9.30;;;29.00;55.30;;;;;;5028082;28;20463;-49
2022/06/20 04:42:04;;;;;;;14.90;10.07;;;29.10;55.30;;;;;;5027506;28;20451;-44
2022/06/20 04:44:48;;;;;;;13.47;9.93;;;29.10;55.70;;;;;;5023099;28;20471;-45
2022/06/20 04:47:31;;;;;;;11.57;9.63;;;29.10;55.30;;;;;;5025869;28;20197;-44
2022/06/20 04:49:57;;;;;;;11.57;10.43;;;29.20;55.60;;;;;;5018410;28;20464;-44
2022/06/20 04:52:26;;;;;;;12.80;9.63;;;29.20;55.30;;;;;;5027374;28;20489;-46
2022/06/20 04:54:53;;;;;;;13.67;10.00;;;29.20;55.10;;;;;;5026811;28;21947;-44
2022/06/20 04:57:18;;;;;;;15.80;11.60;;;29.10;55.10;;;;;;5024824;28;20854;-44
2022/06/20 04:59:44;;;;;;;13.83;9.20;;;29.10;55.20;;;;;;5026762;28;20440;-48
2022/06/20 05:02:15;;;;;;;11.37;9.73;;;29.00;55.50;;;;;;5021749;28;20193;-44
2022/06/20 05:04:46;;;;;;;12.03;9.37;;;28.90;55.70;;;;;;5029689;28;20602;-44
2022/06/20 05:07:35;;;;;;;10.20;9.20;;;29.00;55.50;;;;;;5026857;28;20443;-44
2022/06/20 05:10:15;;;;;;;13.80;9.77;;;28.90;55.70;;;;;;5025155;28;20869;-45
2022/06/20 05:13:21;;;;;;;10.27;8.93;;;28.80;56.10;;;;;;5019266;28;20487;-44
2022/06/20 05:15:49;;;;;;;12.37;9.00;;;28.80;56.30;;;;;;5014852;28;20490;-45
2022/06/20 05:18:24;;;;;;;14.77;9.77;;;28.80;56.30;;;;;;5027335;28;20459;-45
2022/06/20 05:20:57;;;;;;;18.10;10.30;;;29.00;55.80;;;;;;5020446;28;20450;-45
2022/06/20 05:24:01;;;;;;;11.57;9.63;;;29.20;55.90;;;;;;5026302;28;20531;-44
2022/06/20 05:26:30;;;;;;;11.90;10.73;;;29.20;56.20;;;;;;4990769;28;20539;-45
2022/06/20 05:29:01;;;;;;;11.83;10.23;;;29.10;56.40;;;;;;5019999;28;20563;-44
2022/06/20 05:31:45;;;;;;;10.67;9.53;;;29.10;56.50;;;;;;5021780;28;20447;-46
2022/06/20 05:34:33;;;;;;;13.40;9.87;;;29.00;56.80;;;;;;5026620;28;20468;-44
2022/06/20 05:37:20;;;;;;;13.93;10.90;;;29.00;56.90;;;;;;5023258;28;20495;-47
2022/06/20 05:39:57;;;;;;;13.60;9.73;;;29.00;57.20;;;;;;5024027;28;20816;-46
2022/06/20 05:42:23;;;;;;;14.97;10.47;;;29.00;57.30;;;;;;5018267;28;20870;-45
2022/06/20 05:44:48;;;;;;;13.00;10.30;;;29.00;57.40;;;;;;5028745;28;20436;-44
2022/06/20 05:47:24;;;;;;;12.77;9.53;;;29.10;57.30;;;;;;5025260;28;20197;-44
2022/06/20 05:50:27;;;;;;;14.30;10.57;;;29.10;57.50;;;;;;5026186;28;20249;-44
2022/06/20 05:52:54;;;;;;;14.80;9.50;;;29.10;56.90;;;;;;5017234;28;20462;-45
2022/06/20 05:55:24;;;;;;;19.80;10.40;;;29.00;57.20;;;;;;5018215;28;20573;-46
2022/06/20 05:57:50;;;;;;;13.27;9.20;;;29.00;56.90;;;;;;5019287;28;20459;-45
2022/06/20 06:00:18;;;;;;;12.13;8.67;;;29.00;56.70;;;;;;5015102;28;20449;-46
2022/06/20 06:02:49;;;;;;;11.13;8.17;;;28.90;56.50;;;;;;5014979;28;20445;-45
2022/06/20 06:05:36;;;;;;;13.63;9.40;;;28.90;56.20;;;;;;5023890;28;20447;-46
2022/06/20 06:08:25;;;;;;;10.50;8.60;;;28.80;56.30;;;;;;5015333;28;20549;-45
2022/06/20 06:10:57;;;;;;;15.90;8.80;;;28.80;56.30;;;;;;5006917;28;20455;-45
2022/06/20 06:13:47;;;;;;;11.63;8.13;;;28.80;56.20;;;;;;5025980;28;20463;-44
2022/06/20 06:16:47;;;;;;;10.60;8.60;;;28.80;56.60;;;;;;5017475;28;20979;-45
2022/06/20 06:19:18;;;;;;;12.27;9.70;;;28.80;56.70;;;;;;5018097;28;20435;-45
2022/06/20 06:21:47;;;;;;;13.10;9.80;;;28.90;57.60;;;;;;5024052;28;20945;-45
2022/06/20 06:24:16;;;;;;;13.80;8.80;;;28.90;57.70;;;;;;5026791;28;20444;-45
2022/06/20 06:26:44;;;;;;;17.83;8.63;;;28.90;57.60;;;;;;5027143;28;20445;-45
2022/06/20 06:29:44;;;;;;;13.70;8.60;;;28.90;57.30;;;;;;5028366;28;20447;-46
2022/06/20 06:32:18;;;;;;;15.50;7.80;;;28.90;56.80;;;;;;4977588;28;20461;-45
2022/06/20 06:34:58;;;;;;;10.93;8.17;;;28.90;56.30;;;;;;5015210;28;20805;-48
2022/06/20 06:37:40;;;;;;;12.33;9.10;;;28.90;56.30;;;;;;5028582;28;20500;-45
2022/06/20 06:40:16;;;;;;;10.27;8.53;;;28.90;56.10;;;;;;5030357;28;20432;-45
2022/06/20 06:42:42;;;;;;;12.53;9.00;;;29.00;56.40;;;;;;5013215;28;20455;-49
2022/06/20 06:45:11;;;;;;;9.90;8.40;;;29.00;56.40;;;;;;5030170;28;20493;-45
2022/06/20 06:47:45;;;;;;;12.53;8.40;;;29.10;57.00;;;;;;5029383;28;20601;-44
2022/06/20 06:50:24;;;;;;;9.07;8.17;;;29.10;57.30;;;;;;5028558;28;20440;-46
2022/06/20 06:52:59;;;;;;;13.67;8.27;;;29.20;57.40;;;;;;5013285;28;20912;-46
2022/06/20 06:55:38;;;;;;;8.87;7.33;;;29.20;56.60;;;;;;5028905;28;20515;-45
2022/06/20 06:58:22;;;;;;;9.33;7.00;;;29.30;55.90;;;;;;5028534;28;20483;-45
2022/06/20 07:00:58;;;;;;;10.77;7.00;;;29.30;55.60;;;;;;5014468;28;20443;-46
2022/06/20 07:03:50;;;;;;;7.87;5.77;;;29.30;52.60;;;;;;5024950;28;20450;-45
2022/06/20 07:06:47;;;;;;;9.10;6.93;;;29.30;52.30;;;;;;5013003;28;20448;-45
2022/06/20 07:09:16;;;;;;;9.03;6.63;;;29.40;53.30;;;;;;5029480;28;20456;-45
2022/06/20 07:11:56;;;;;;;10.07;6.97;;;29.40;53.80;;;;;;5029023;28;20854;-45
2022/06/20 07:14:23;;;;;;;10.87;7.03;;;29.50;53.40;;;;;;5030186;28;20444;-45
2022/06/20 07:16:57;;;;;;;13.07;7.17;;;29.40;53.10;;;;;;5032140;28;20606;-45
2022/06/20 07:19:24;;;;;;;11.40;7.87;;;29.40;52.80;;;;;;5022864;28;20488;-45
2022/06/20 07:21:50;;;;;;;8.57;7.13;;;29.40;53.10;;;;;;5033176;28;20476;-45
2022/06/20 07:24:19;;;;;;;12.97;8.47;;;29.40;54.40;;;;;;5033118;28;20456;-45
2022/06/20 07:26:51;;;;;;;14.83;6.60;;;29.40;54.70;;;;;;5031856;28;20530;-45
2022/06/20 07:29:22;;;;;;;13.10;8.13;;;29.50;54.80;;;;;;5032183;28;20448;-46
2022/06/20 07:32:03;;;;;;;11.73;8.47;;;29.50;55.20;;;;;;5018672;28;20530;-45
2022/06/20 07:34:44;;;;;;;12.17;8.83;;;29.40;53.40;;;;;;5033373;28;21043;-45
2022/06/20 07:37:14;;;;;;;11.70;9.40;;;29.40;54.60;;;;;;5032914;28;20487;-46
2022/06/20 07:39:47;;;;;;;13.63;9.77;;;29.50;55.50;;;;;;5031178;28;20454;-45
2022/06/20 07:42:26;;;;;;;11.70;8.47;;;29.50;55.20;;;;;;5031990;28;20451;-45
2022/06/20 07:44:57;;;;;;;9.07;8.07;;;29.70;54.80;;;;;;5033214;28;20455;-46
2022/06/20 07:47:35;;;;;;;13.53;8.90;;;29.70;54.20;;;;;;5031356;28;20454;-48
2022/06/20 07:50:16;;;;;;;12.80;8.30;;;29.80;56.70;;;;;;5031963;28;20455;-45
2022/06/20 07:53:01;;;;;;;10.63;7.53;;;29.90;55.60;;;;;;5016997;28;20455;-45
2022/06/20 07:55:30;;;;;;;8.90;8.00;;;30.00;54.90;;;;;;5033267;28;20626;-44
2022/06/20 07:58:02;;;;;;;9.03;7.27;;;30.10;54.50;;;;;;5031937;28;20491;-46
2022/06/20 08:00:34;;;;;;;9.93;8.00;;;30.30;54.90;;;;;;5024598;28;20444;-48
2022/06/20 08:03:22;;;;;;;10.33;7.53;;;30.40;55.20;;;;;;5029159;28;20507;-48
2022/06/20 08:05:58;;;;;;;15.37;8.23;;;30.60;55.00;;;;;;5029271;28;20497;-45
2022/06/20 08:08:45;;;;;;;10.07;7.97;;;30.70;54.30;;;;;;5024489;28;20544;-45
2022/06/20 08:11:40;;;;;;;11.30;7.50;;;31.00;52.40;;;;;;5027066;28;20447;-48
2022/06/20 08:14:07;;;;;;;8.40;6.93;;;31.00;52.30;;;;;;5026246;28;20467;-45
2022/06/20 08:16:34;;;;;;;18.00;7.93;;;31.20;51.80;;;;;;5023054;28;21309;-46
2022/06/20 08:19:00;;;;;;;17.50;8.57;;;31.30;51.10;;;;;;5024116;28;20498;-46
2022/06/20 08:21:27;;;;;;;13.03;8.73;;;31.30;49.30;;;;;;5026841;28;20448;-44
2022/06/20 08:23:58;;;;;;;10.23;7.90;;;31.40;49.60;;;;;;5032640;28;20197;-45
2022/06/20 08:27:09;;;;;;;8.83;7.40;;;31.50;49.20;;;;;;5030531;28;20483;-47
2022/06/20 08:29:42;;;;;;;12.47;6.70;;;31.60;51.70;;;;;;5025042;28;20459;-45
2022/06/20 08:32:40;;;;;;;12.00;6.57;;;31.60;50.80;;;;;;5030549;28;20804;-47
2022/06/20 08:35:33;;;;;;;14.20;7.40;;;31.80;50.90;;;;;;5032029;28;20627;-48
2022/06/20 08:38:07;;;;;;;10.47;6.53;;;31.80;48.40;;;;;;5025802;28;20505;-47
2022/06/20 08:41:01;;;;;;;8.33;6.57;;;31.80;46.50;;;;;;5031354;28;20942;-45
2022/06/20 08:43:46;;;;;;;8.97;6.47;;;31.60;45.80;;;;;;5030456;28;20451;-49
2022/06/20 08:46:43;;;;;;;9.30;6.67;;;31.60;46.70;;;;;;5029922;28;20821;-44
2022/06/20 08:49:42;;;;;;;7.10;6.40;;;31.80;46.00;;;;;;5027543;28;20513;-46
2022/06/20 08:52:28;;;;;;;10.63;7.20;;;31.90;46.00;;;;;;5029461;28;20448;-46
2022/06/20 08:55:25;;;;;;;10.33;6.90;;;31.90;44.70;;;;;;5025724;28;20487;-46
2022/06/20 08:58:12;;;;;;;10.00;6.20;;;32.00;44.80;;;;;;5024708;28;20514;-44
2022/06/20 09:00:51;;;;;;;8.67;6.87;;;32.00;44.70;;;;;;5030073;28;20467;-45
2022/06/20 09:03:29;;;;;;;8.53;6.43;;;31.90;44.10;;;;;;5029497;28;20435;-45
2022/06/20 09:06:32;;;;;;;8.80;5.60;;;31.90;44.10;;;;;;5029494;28;20459;-44
2022/06/20 09:09:03;;;;;;;10.50;6.80;;;32.00;44.70;;;;;;5020602;28;20451;-46
2022/06/20 09:11:40;;;;;;;8.20;7.00;;;32.20;44.00;;;;;;5019265;28;20451;-45
2022/06/20 09:14:25;;;;;;;10.23;6.30;;;32.50;44.10;;;;;;5022959;28;20448;-46
2022/06/20 09:17:10;;;;;;;7.90;6.60;;;32.60;43.80;;;;;;5028200;28;21101;-47
2022/06/20 09:20:02;;;;;;;7.33;6.43;;;32.80;43.60;;;;;;5019768;28;20452;-47
2022/06/20 09:23:06;;;;;;;7.03;6.37;;;33.00;41.20;;;;;;5020410;28;21044;-47
2022/06/20 09:25:46;;;;;;;14.10;6.33;;;33.10;42.30;;;;;;5023384;28;20815;-47
2022/06/20 09:29:01;;;;;;;11.13;6.40;;;33.40;42.40;;;;;;5020395;28;20456;-45
2022/06/20 09:31:57;;;;;;;10.50;7.30;;;33.60;41.10;;;;;;4925011;29;20996;-46
2022/06/20 09:34:39;;;;;;;10.40;6.60;;;33.50;40.50;;;;;;5026922;28;20471;-47
2022/06/20 09:37:08;;;;;;;9.13;6.70;;;33.50;39.90;;;;;;5022613;28;20606;-46
2022/06/20 09:39:59;;;;;;;10.13;6.67;;;33.60;40.00;;;;;;5026908;28;20449;-46
2022/06/20 09:42:52;;;;;;;11.07;6.97;;;33.80;40.30;;;;;;5025053;28;20458;-46
2022/06/20 09:45:21;;;;;;;15.40;6.83;;;33.80;40.30;;;;;;5026784;28;20452;-46
2022/06/20 09:48:08;;;;;;;11.30;6.80;;;33.90;40.10;;;;;;5025680;28;20479;-46
2022/06/20 09:51:03;;;;;;;11.30;6.60;;;33.90;39.40;;;;;;5027293;28;20525;-46
2022/06/20 09:54:02;;;;;;;9.20;5.87;;;33.80;40.40;;;;;;5028502;28;20440;-47
2022/06/20 09:56:41;;;;;;;11.23;6.80;;;33.30;40.00;;;;;;5019752;28;20510;-46
2022/06/20 09:59:25;;;;;;;8.37;6.47;;;33.70;40.80;;;;;;5023638;28;20456;-46
2022/06/20 10:02:16;;;;;;;13.53;6.93;;;34.00;40.10;;;;;;5021454;28;20505;-44
2022/06/20 10:04:51;;;;;;;7.50;6.67;;;34.00;39.70;;;;;;5020289;28;20936;-45
2022/06/20 10:07:41;;;;;;;6.50;5.97;;;34.20;39.50;;;;;;5024958;28;20451;-45
2022/06/20 10:10:13;;;;;;;10.33;5.73;;;34.40;38.80;;;;;;5017863;28;20478;-45
2022/06/20 10:13:18;;;;;;;9.70;6.33;;;34.70;38.90;;;;;;5026118;28;20448;-48
2022/06/20 10:15:55;;;;;;;9.67;6.00;;;35.00;38.60;;;;;;5026624;28;20551;-44
2022/06/20 10:18:23;;;;;;;10.43;7.60;;;35.30;37.60;;;;;;5026506;28;20448;-44
2022/06/20 10:21:12;;;;;;;7.87;6.50;;;35.20;37.50;;;;;;5029369;28;20493;-44
2022/06/20 10:23:44;;;;;;;13.87;6.30;;;35.50;38.20;;;;;;5027362;28;20460;-44
2022/06/20 10:26:21;;;;;;;8.43;6.87;;;35.70;37.30;;;;;;5029090;28;20815;-45
2022/06/20 10:29:07;;;;;;;9.53;5.40;;;35.70;36.10;;;;;;5025702;28;20446;-44
2022/06/20 10:31:53;;;;;;;6.43;5.40;;;35.80;36.80;;;;;;4974022;28;20534;-44
2022/06/20 10:34:37;;;;;;;8.30;6.00;;;36.10;36.40;;;;;;5013816;28;20444;-44
2022/06/20 10:37:24;;;;;;;16.20;6.43;;;36.40;36.20;;;;;;5023226;28;21044;-44
2022/06/20 10:40:10;;;;;;;10.90;6.87;;;36.50;35.20;;;;;;5024725;28;20456;-45
2022/06/20 10:43:01;;;;;;;7.27;6.13;;;36.40;34.40;;;;;;5025532;28;20509;-44
2022/06/20 10:45:39;;;;;;;8.37;5.90;;;36.30;34.70;;;;;;5003936;28;20605;-43
2022/06/20 10:48:21;;;;;;;7.90;5.80;;;36.00;35.10;;;;;;5025217;28;20545;-44
2022/06/20 10:51:09;;;;;;;12.53;6.33;;;35.60;35.50;;;;;;5023792;28;20447;-44
2022/06/20 10:54:14;;;;;;;10.93;5.80;;;35.40;35.50;;;;;;5027342;28;20989;-44
2022/06/20 10:56:39;;;;;;;10.87;6.23;;;35.20;35.80;;;;;;4981823;28;20502;-43
2022/06/20 10:59:40;;;;;;;11.60;6.43;;;35.00;36.60;;;;;;5027252;28;20820;-45
2022/06/20 11:02:48;;;;;;;9.63;5.80;;;34.90;36.80;;;;;;5022245;28;20193;-44
2022/06/20 11:05:51;;;;;;;8.77;6.20;;;34.70;36.80;;;;;;4994056;28;20813;-47
2022/06/20 11:08:29;;;;;;;8.10;5.93;;;34.50;37.50;;;;;;5019719;28;20459;-44
2022/06/20 11:11:33;;;;;;;12.60;5.83;;;34.40;37.80;;;;;;5028306;28;20458;-45
2022/06/20 11:14:18;;;;;;;9.17;6.83;;;34.30;37.90;;;;;;5021227;28;20490;-48
2022/06/20 11:17:02;;;;;;;15.23;6.60;;;34.00;38.30;;;;;;5028375;28;20492;-48
2022/06/20 11:19:58;;;;;;;7.20;6.60;;;33.90;38.90;;;;;;5027573;28;20464;-45
2022/06/20 11:22:47;;;;;;;8.63;6.20;;;34.00;38.80;;;;;;5019050;28;20506;-47
2022/06/20 11:25:44;;;;;;;9.70;6.40;;;33.80;38.30;;;;;;5023479;28;20463;-47
2022/06/20 11:28:24;;;;;;;8.00;5.77;;;33.70;38.70;;;;;;5022330;28;20867;-47
2022/06/20 11:31:02;;;;;;;6.30;5.50;;;33.50;38.80;;;;;;5013132;28;20447;-49
2022/06/20 11:34:06;;;;;;;6.07;5.47;;;33.20;37.90;;;;;;5026926;28;20455;-47
2022/06/20 11:36:53;;;;;;;10.83;6.37;;;32.90;38.70;;;;;;5022396;28;20488;-44
2022/06/20 11:39:27;;;;;;;8.13;5.97;;;32.80;38.70;;;;;;5019293;28;20968;-45
2022/06/20 11:42:04;;;;;;;9.67;6.50;;;32.70;39.00;;;;;;5023168;28;20454;-45
2022/06/20 11:44:55;;;;;;;9.67;6.20;;;32.40;39.80;;;;;;5026003;28;21336;-44
2022/06/20 11:47:27;;;;;;;8.33;5.53;;;32.30;39.70;;;;;;5025451;28;20440;-47
2022/06/20 11:50:01;;;;;;;10.00;5.57;;;32.40;39.80;;;;;;5019829;28;20444;-46
2022/06/20 11:52:49;;;;;;;7.43;5.60;;;32.50;40.00;;;;;;5014271;28;20498;-44
2022/06/20 11:55:38;;;;;;;6.27;5.13;;;32.60;39.60;;;;;;5027689;28;20487;-45
2022/06/20 11:58:13;;;;;;;6.53;5.33;;;32.30;39.40;;;;;;5019796;28;20804;-44
2022/06/20 12:01:06;;;;;;;8.20;5.80;;;32.20;40.10;;;;;;5020520;28;20445;-47
2022/06/20 12:03:44;;;;;;;7.53;4.60;;;32.20;40.70;;;;;;5028271;28;20452;-47
2022/06/20 12:06:22;;;;;;;7.53;4.50;;;31.90;40.10;;;;;;5030879;28;20931;-47
2022/06/20 12:08:59;;;;;;;8.20;5.50;;;32.00;41.10;;;;;;5028765;28;20532;-46
2022/06/20 12:11:30;;;;;;;10.00;5.73;;;32.10;41.10;;;;;;5028268;28;22487;-50
2022/06/20 12:14:23;;;;;;;6.07;5.47;;;32.20;41.20;;;;;;5026781;28;20514;-46
2022/06/20 12:17:11;;;;;;;5.77;4.80;;;32.00;41.20;;;;;;5022962;28;20499;-47
2022/06/20 12:25:49;;;;;;;9.43;5.23;;;31.70;40.50;;;;;;5025896;28;20505;-45
2022/06/20 12:28:23;;;;;;;11.10;5.30;;;31.90;42.10;;;;;;5025795;28;20454;-46
2022/06/20 12:31:01;;;;;;;6.93;5.50;;;32.10;42.30;;;;;;5029874;28;20490;-43
2022/06/20 12:33:29;;;;;;;9.00;6.00;;;32.40;41.70;;;;;;5021552;28;20543;-44
2022/06/20 12:36:00;;;;;;;6.90;5.07;;;32.60;41.10;;;;;;5025538;28;20469;-44
2022/06/20 12:38:50;;;;;;;11.87;5.50;;;32.80;41.10;;;;;;5026293;28;20997;-44
2022/06/20 12:41:19;;;;;;;10.63;5.97;;;32.90;40.00;;;;;;5020511;28;20455;-45
2022/06/20 12:44:00;;;;;;;7.37;4.90;;;33.00;40.30;;;;;;5028503;28;20448;-44
2022/06/20 12:46:32;;;;;;;9.23;4.97;;;32.80;40.40;;;;;;5028102;28;20487;-45
2022/06/20 12:49:39;;;;;;;11.63;5.30;;;32.70;40.30;;;;;;5030069;28;20455;-45
2022/06/20 12:52:16;;;;;;;8.20;5.10;;;32.80;40.10;;;;;;4980618;28;20461;-44
2022/06/20 12:55:03;;;;;;;9.10;5.43;;;32.90;40.50;;;;;;5026185;28;20511;-43
2022/06/20 12:58:01;;;;;;;7.23;4.73;;;32.80;40.10;;;;;;5022808;28;20860;-46
2022/06/20 13:00:39;;;;;;;7.60;5.67;;;32.70;40.20;;;;;;5007476;28;21001;-46
2022/06/20 13:03:14;;;;;;;9.07;5.47;;;32.50;40.60;;;;;;5029615;28;20444;-47
2022/06/20 13:05:59;;;;;;;6.80;5.23;;;32.60;41.00;;;;;;5026386;28;20866;-46
2022/06/20 13:08:59;;;;;;;7.30;5.00;;;32.50;40.40;;;;;;5025797;28;20466;-47
2022/06/20 13:11:40;;;;;;;7.27;4.87;;;32.30;41.40;;;;;;5015004;28;20452;-45
2022/06/20 13:14:15;;;;;;;6.63;5.03;;;32.30;41.40;;;;;;5026133;28;20498;-45
2022/06/20 13:17:18;;;;;;;4.93;4.40;;;32.30;41.60;;;;;;5022033;28;20543;-45
2022/06/20 13:20:16;;;;;;;12.03;5.20;;;32.50;40.80;;;;;;5026732;28;20451;-44
2022/06/20 13:22:57;;;;;;;7.50;5.07;;;32.50;40.70;;;;;;4992209;28;20448;-49
2022/06/20 13:25:38;;;;;;;5.77;5.17;;;32.50;40.50;;;;;;5025746;28;20446;-45
2022/06/20 13:28:29;;;;;;;11.43;5.23;;;32.30;40.50;;;;;;5023488;28;20451;-45
2022/06/20 13:31:26;;;;;;;7.40;4.33;;;32.20;41.00;;;;;;5026367;28;20439;-47
2022/06/20 13:34:14;;;;;;;5.93;4.70;;;32.30;41.30;;;;;;5020346;28;20453;-46
2022/06/20 13:36:50;;;;;;;6.23;4.40;;;32.30;41.00;;;;;;5026901;28;20491;-47
2022/06/20 13:39:48;;;;;;;5.77;4.00;;;32.20;41.10;;;;;;5027157;28;20458;-47
2022/06/20 13:42:27;;;;;;;6.10;4.33;;;32.10;42.40;;;;;;5028281;28;20555;-48
2022/06/20 13:45:15;;;;;;;5.50;4.30;;;32.00;41.50;;;;;;5021755;28;20505;-47
2022/06/20 13:48:00;;;;;;;6.90;4.60;;;31.80;41.80;;;;;;5020142;28;20455;-49
2022/06/20 13:50:40;;;;;;;5.97;4.23;;;31.60;42.20;;;;;;5021896;28;20594;-47